createdAt,value
2019-01-24T00:01:44.533Z,100872.00
2019-01-24T00:04:17.361Z,100856.00
2019-01-24T00:06:50.538Z,100862.00
2019-01-24T00:09:23.730Z,100877.00
2019-01-24T00:11:56.530Z,100877.00
2019-01-24T00:14:29.655Z,100869.00
2019-01-24T00:17:03.219Z,100871.00
2019-01-24T00:19:36.202Z,100875.00
2019-01-24T00:22:09.283Z,100861.00
2019-01-24T00:24:42.306Z,100868.00
2019-01-24T00:27:15.059Z,100868.00
2019-01-24T00:29:48.244Z,100866.00
2019-01-24T00:32:21.034Z,100863.00
2019-01-24T00:34:55.626Z,100859.00
2019-01-24T00:37:28.640Z,100879.00
2019-01-24T00:40:01.625Z,100856.00
2019-01-24T00:42:34.305Z,100865.00
2019-01-24T00:45:08.584Z,100870.00
2019-01-24T00:47:41.420Z,100860.00
2019-01-24T00:50:19.612Z,100878.00
2019-01-24T00:52:52.514Z,100867.00
2019-01-24T00:55:25.670Z,100858.00
2019-01-24T00:57:58.512Z,100861.00
2019-01-24T01:00:31.868Z,100868.00
2019-01-24T01:03:04.652Z,100866.00
2019-01-24T01:05:37.735Z,100870.00
2019-01-24T01:08:10.757Z,100876.00
2019-01-24T01:10:43.840Z,100875.00
2019-01-24T01:13:16.616Z,100883.00
2019-01-24T01:15:49.696Z,100863.00
2019-01-24T01:18:22.459Z,100874.00
2019-01-24T01:20:55.562Z,100871.00
2019-01-24T01:23:28.560Z,100883.00
2019-01-24T01:26:01.456Z,100871.00
2019-01-24T01:28:35.529Z,100874.00
2019-01-24T01:31:08.707Z,100874.00
2019-01-24T01:33:42.140Z,100872.00
2019-01-24T01:36:15.743Z,100861.00
2019-01-24T01:38:48.700Z,100859.00
2019-01-24T01:41:22.125Z,100863.00
2019-01-24T01:43:55.921Z,100862.00
2019-01-24T01:46:29.312Z,100861.00
2019-01-24T01:49:03.670Z,100862.00
2019-01-24T01:51:37.133Z,100856.00
2019-01-24T01:54:10.896Z,100850.00
2019-01-24T01:56:43.512Z,100847.00
2019-01-24T01:59:16.192Z,100848.00
2019-01-24T02:01:49.203Z,100850.00
2019-01-24T02:04:22.086Z,100848.00
2019-01-24T02:06:55.167Z,100853.00
2019-01-24T02:09:28.159Z,100878.00
2019-01-24T02:12:01.208Z,100886.00
2019-01-24T02:14:34.729Z,100886.00
2019-01-24T02:17:08.837Z,100898.00
2019-01-24T02:19:41.836Z,100895.00
2019-01-24T02:22:14.793Z,100892.00
2019-01-24T02:24:47.605Z,100890.00
2019-01-24T02:27:20.697Z,100889.00
2019-01-24T02:29:53.577Z,100902.00
2019-01-24T02:32:26.439Z,100893.00
2019-01-24T02:34:59.340Z,100894.00
2019-01-24T02:37:32.246Z,100889.00
2019-01-24T02:40:05.304Z,100892.00
2019-01-24T02:42:38.101Z,100882.00
2019-01-24T02:45:12.858Z,100892.00
2019-01-24T02:47:45.579Z,100890.00
2019-01-24T02:50:21.290Z,100889.00
2019-01-24T02:52:54.752Z,100890.00
2019-01-24T02:55:28.242Z,100889.00
2019-01-24T02:58:01.126Z,100890.00
2019-01-24T03:00:34.110Z,100891.00
2019-01-24T03:03:07.312Z,100889.00
2019-01-24T03:05:40.112Z,100889.00
2019-01-24T03:08:13.073Z,100902.00
2019-01-24T03:10:47.709Z,100896.00
2019-01-24T03:13:20.760Z,100898.00
2019-01-24T03:15:53.690Z,100897.00
2019-01-24T03:18:27.510Z,100893.00
2019-01-24T03:21:00.279Z,100887.00
2019-01-24T03:23:33.256Z,100889.00
2019-01-24T03:26:07.180Z,100894.00
2019-01-24T03:28:40.183Z,100903.00
2019-01-24T03:31:13.050Z,100901.00
2019-01-24T03:33:47.213Z,100893.00
2019-01-24T03:36:20.138Z,100899.00
2019-01-24T03:38:53.017Z,100892.00
2019-01-24T03:41:25.992Z,100888.00
2019-01-24T03:43:58.788Z,100892.00
2019-01-24T03:46:31.849Z,100885.00
2019-01-24T03:49:04.660Z,100889.00
2019-01-24T03:51:38.189Z,100892.00
2019-01-24T03:54:11.137Z,100887.00
2019-01-24T03:56:44.651Z,100884.00
2019-01-24T03:59:17.534Z,100886.00
2019-01-24T04:01:51.715Z,100889.00
2019-01-24T04:04:24.518Z,100904.00
2019-01-24T04:06:58.719Z,100906.00
2019-01-24T04:09:31.527Z,100899.00
2019-01-24T04:12:04.511Z,100893.00
2019-01-24T04:14:37.374Z,100895.00
2019-01-24T04:17:10.467Z,100899.00
2019-01-24T04:19:43.143Z,100914.00
2019-01-24T04:22:16.235Z,100904.00
2019-01-24T04:24:49.036Z,100892.00
2019-01-24T04:27:21.999Z,100890.00
2019-01-24T04:29:55.000Z,100895.00
2019-01-24T04:32:28.194Z,100884.00
2019-01-24T04:35:00.983Z,100884.00
2019-01-24T04:37:33.946Z,100885.00
2019-01-24T04:40:07.358Z,100886.00
2019-01-24T04:42:40.342Z,100888.00
2019-01-24T04:45:14.725Z,100890.00
2019-01-24T04:47:47.747Z,100891.00
2019-01-24T04:50:21.231Z,100883.00
2019-01-24T04:52:54.195Z,100886.00
2019-01-24T04:55:27.120Z,100890.00
2019-01-24T04:57:59.975Z,100900.00
2019-01-24T05:00:33.521Z,100895.00
2019-01-24T05:03:06.574Z,100901.00
2019-01-24T05:05:39.780Z,100908.00
2019-01-24T05:08:12.789Z,100900.00
2019-01-24T05:10:48.604Z,100900.00
2019-01-24T05:13:21.628Z,100898.00
2019-01-24T05:15:55.805Z,100897.00
2019-01-24T05:18:28.730Z,100897.00
2019-01-24T05:21:01.773Z,100903.00
2019-01-24T05:23:35.009Z,100891.00
2019-01-24T05:26:08.112Z,100886.00
2019-01-24T05:28:40.960Z,100889.00
2019-01-24T05:31:13.972Z,100892.00
2019-01-24T05:33:46.860Z,100905.00
2019-01-24T05:36:19.758Z,100915.00
2019-01-24T05:38:52.770Z,100911.00
2019-01-24T05:41:25.814Z,100903.00
2019-01-24T05:43:58.584Z,100909.00
2019-01-24T05:46:31.555Z,100911.00
2019-01-24T05:49:04.212Z,100918.00
2019-01-24T05:51:37.323Z,100929.00
2019-01-24T05:54:10.103Z,100928.00
2019-01-24T05:56:43.091Z,100928.00
2019-01-24T05:59:15.769Z,100923.00
2019-01-24T06:01:49.246Z,100918.00
2019-01-24T06:04:22.047Z,100926.00
2019-01-24T06:06:55.373Z,100924.00
2019-01-24T06:09:28.234Z,100931.00
2019-01-24T06:12:01.484Z,100941.00
2019-01-24T06:14:34.448Z,100945.00
2019-01-24T06:17:07.291Z,100937.00
2019-01-24T06:19:40.311Z,100937.00
2019-01-24T06:22:13.162Z,100942.00
2019-01-24T06:24:46.150Z,100955.00
2019-01-24T06:27:20.058Z,100955.00
2019-01-24T06:29:53.143Z,100966.00
2019-01-24T06:32:26.331Z,100968.00
2019-01-24T06:34:59.325Z,100966.00
2019-01-24T06:37:31.992Z,100974.00
2019-01-24T06:40:04.796Z,100974.00
2019-01-24T06:42:37.865Z,100983.00
2019-01-24T06:45:12.446Z,100986.00
2019-01-24T06:47:45.603Z,100987.00
2019-01-24T06:50:19.311Z,100996.00
2019-01-24T06:52:52.267Z,100996.00
2019-01-24T06:55:31.199Z,100995.00
2019-01-24T06:58:04.211Z,101007.00
2019-01-24T07:00:36.986Z,101008.00
2019-01-24T07:03:09.986Z,100999.00
2019-01-24T07:05:42.751Z,101007.00
2019-01-24T07:08:15.716Z,101006.00
2019-01-24T07:10:48.517Z,101012.00
2019-01-24T07:13:21.820Z,101005.00
2019-01-24T07:15:54.828Z,101015.00
2019-01-24T07:18:27.883Z,101012.00
2019-01-24T07:21:00.676Z,101012.00
2019-01-24T07:23:33.662Z,101011.00
2019-01-24T07:26:06.644Z,101019.00
2019-01-24T07:28:39.684Z,101014.00
2019-01-24T07:31:12.480Z,101022.00
2019-01-24T07:33:46.068Z,101027.00
2019-01-24T07:36:18.851Z,101032.00
2019-01-24T07:38:52.039Z,101035.00
2019-01-24T07:41:25.237Z,101040.00
2019-01-24T07:43:58.209Z,101038.00
2019-01-24T07:46:31.010Z,101041.00
2019-01-24T07:49:03.927Z,101032.00
2019-01-24T07:51:36.776Z,101042.00
2019-01-24T07:54:10.852Z,101037.00
2019-01-24T07:56:43.757Z,101034.00
2019-01-24T07:59:16.722Z,101028.00
2019-01-24T08:01:49.535Z,101041.00
2019-01-24T08:04:22.518Z,101051.00
2019-01-24T08:06:55.416Z,101054.00
2019-01-24T08:09:28.899Z,101060.00
2019-01-24T08:12:01.681Z,101062.00
2019-01-24T08:14:34.657Z,101066.00
2019-01-24T08:17:07.665Z,101071.00
2019-01-24T08:19:40.648Z,101087.00
2019-01-24T08:22:13.444Z,101081.00
2019-01-24T08:24:46.277Z,101087.00
2019-01-24T08:27:19.192Z,101084.00
2019-01-24T08:29:52.219Z,101077.00
2019-01-24T08:32:26.267Z,101096.00
2019-01-24T08:34:59.171Z,101107.00
2019-01-24T08:37:32.160Z,101102.00
2019-01-24T08:40:04.938Z,101106.00
2019-01-24T08:42:37.938Z,101106.00
2019-01-24T08:45:13.008Z,101107.00
2019-01-24T08:47:46.709Z,101111.00
2019-01-24T08:50:27.068Z,101110.00
2019-01-24T08:52:59.972Z,101116.00
2019-01-24T08:55:34.777Z,101121.00
2019-01-24T08:58:07.827Z,101130.00
2019-01-24T09:00:40.711Z,101129.00
2019-01-24T09:03:13.704Z,101129.00
2019-01-24T09:05:46.689Z,101126.00
2019-01-24T09:08:19.539Z,101134.00
2019-01-24T09:10:52.329Z,101126.00
2019-01-24T09:13:25.246Z,101127.00
2019-01-24T09:15:58.198Z,101145.00
2019-01-24T09:18:31.008Z,101150.00
2019-01-24T09:21:03.987Z,101148.00
2019-01-24T09:23:36.846Z,101153.00
2019-01-24T09:26:09.966Z,101147.00
2019-01-24T09:28:42.750Z,101158.00
2019-01-24T09:31:15.728Z,101151.00
2019-01-24T09:33:48.404Z,101148.00
2019-01-24T09:36:21.323Z,101152.00
2019-01-24T09:38:54.488Z,101167.00
2019-01-24T09:41:27.144Z,101160.00
2019-01-24T09:44:00.251Z,101161.00
2019-01-24T09:46:33.249Z,101167.00
2019-01-24T09:49:06.161Z,101172.00
2019-01-24T09:51:40.246Z,101170.00
2019-01-24T09:54:13.025Z,101172.00
2019-01-24T09:56:46.200Z,101174.00
2019-01-24T09:59:18.885Z,101179.00
2019-01-24T10:01:51.663Z,101177.00
2019-01-24T10:04:24.639Z,101184.00
2019-01-24T10:06:57.550Z,101176.00
2019-01-24T10:09:30.626Z,101167.00
2019-01-24T10:12:04.162Z,101172.00
2019-01-24T10:14:37.325Z,101161.00
2019-01-24T10:17:10.252Z,101165.00
2019-01-24T10:19:43.985Z,101169.00
2019-01-24T10:22:16.918Z,101170.00
2019-01-24T10:24:49.876Z,101173.00
2019-01-24T10:27:22.588Z,101172.00
2019-01-24T10:29:55.638Z,101167.00
2019-01-24T10:32:28.447Z,101158.00
2019-01-24T10:35:01.408Z,101146.00
2019-01-24T10:37:34.410Z,101157.00
2019-01-24T10:40:08.518Z,101151.00
2019-01-24T10:42:41.286Z,101148.00
2019-01-24T10:45:16.430Z,101150.00
2019-01-24T10:47:49.346Z,101154.00
2019-01-24T10:50:23.662Z,101148.00
2019-01-24T10:52:56.424Z,101142.00
2019-01-24T10:55:30.216Z,101149.00
2019-01-24T10:58:03.428Z,101136.00
2019-01-24T11:00:38.078Z,101146.00
2019-01-24T11:03:12.627Z,101145.00
2019-01-24T11:05:45.706Z,101139.00
2019-01-24T11:08:18.641Z,101141.00
2019-01-24T11:10:51.501Z,101134.00
2019-01-24T11:13:24.414Z,101136.00
2019-01-24T11:15:57.402Z,101141.00
2019-01-24T11:18:30.314Z,101149.00
2019-01-24T11:21:03.367Z,101153.00
2019-01-24T11:23:36.171Z,101153.00
2019-01-24T11:26:09.209Z,101154.00
2019-01-24T11:28:42.127Z,101162.00
2019-01-24T11:31:15.119Z,101171.00
2019-01-24T11:33:47.890Z,101169.00
2019-01-24T11:36:20.883Z,101172.00
2019-01-24T11:38:53.682Z,101170.00
2019-01-24T11:41:26.935Z,101176.00
2019-01-24T11:43:59.834Z,101167.00
2019-01-24T11:46:33.236Z,101164.00
2019-01-24T11:49:06.144Z,101166.00
2019-01-24T11:51:38.919Z,101159.00
2019-01-24T11:54:11.864Z,101154.00
2019-01-24T11:56:44.893Z,101154.00
2019-01-24T11:59:17.772Z,101153.00
2019-01-24T12:01:50.613Z,101152.00
2019-01-24T12:04:23.521Z,101153.00
2019-01-24T12:06:56.969Z,101149.00
2019-01-24T12:09:29.737Z,101138.00
2019-01-24T12:12:02.690Z,101143.00
2019-01-24T12:14:35.486Z,101139.00
2019-01-24T12:17:08.666Z,101131.00
2019-01-24T12:19:42.187Z,101138.00
2019-01-24T12:22:15.238Z,101132.00
2019-01-24T12:24:48.027Z,101126.00
2019-01-24T12:27:20.971Z,101127.00
2019-01-24T12:29:54.000Z,101127.00
2019-01-24T12:32:26.799Z,101136.00
2019-01-24T12:34:59.775Z,101132.00
2019-01-24T12:37:32.755Z,101133.00
2019-01-24T12:40:06.255Z,101130.00
2019-01-24T12:42:39.292Z,101136.00
2019-01-24T12:45:17.607Z,101142.00
2019-01-24T12:47:50.480Z,101129.00
2019-01-24T12:50:24.057Z,101117.00
2019-01-24T12:52:56.709Z,101118.00
2019-01-24T12:55:29.905Z,101119.00
2019-01-24T12:58:02.805Z,101126.00
2019-01-24T13:00:37.690Z,101120.00
2019-01-24T13:03:10.293Z,101120.00
2019-01-24T13:05:43.394Z,101117.00
2019-01-24T13:08:16.173Z,101113.00
2019-01-24T13:10:49.158Z,101117.00
2019-01-24T13:13:22.106Z,101123.00
2019-01-24T13:15:54.934Z,101127.00
2019-01-24T13:18:27.932Z,101128.00
2019-01-24T13:21:00.907Z,101135.00
2019-01-24T13:23:33.892Z,101133.00
2019-01-24T13:26:06.675Z,101119.00
2019-01-24T13:28:39.593Z,101125.00
2019-01-24T13:31:12.504Z,101129.00
2019-01-24T13:33:45.541Z,101131.00
2019-01-24T13:36:18.549Z,101125.00
2019-01-24T13:38:51.488Z,101128.00
2019-01-24T13:41:24.397Z,101137.00
2019-01-24T13:43:57.374Z,101134.00
2019-01-24T13:46:30.161Z,101134.00
2019-01-24T13:49:03.019Z,101138.00
2019-01-24T13:51:35.934Z,101141.00
2019-01-24T13:54:08.702Z,101135.00
2019-01-24T13:56:41.617Z,101129.00
2019-01-24T13:59:14.693Z,101135.00
2019-01-24T14:01:47.459Z,101138.00
2019-01-24T14:04:20.259Z,101126.00
2019-01-24T14:06:53.134Z,101132.00
2019-01-24T14:09:26.031Z,101129.00
2019-01-24T14:11:58.808Z,101116.00
2019-01-24T14:14:31.986Z,101124.00
2019-01-24T14:17:04.975Z,101119.00
2019-01-24T14:19:37.896Z,101110.00
2019-01-24T14:22:10.969Z,101110.00
2019-01-24T14:24:44.089Z,101115.00
2019-01-24T14:27:16.925Z,101114.00
2019-01-24T14:29:49.709Z,101110.00
2019-01-24T14:32:22.687Z,101116.00
2019-01-24T14:34:55.474Z,101116.00
2019-01-24T14:37:28.390Z,101120.00
2019-01-24T14:40:01.263Z,101129.00
2019-01-24T14:42:34.377Z,101129.00
2019-01-24T14:45:08.807Z,101129.00
2019-01-24T14:47:41.510Z,101139.00
2019-01-24T14:50:16.658Z,101135.00
2019-01-24T14:52:49.659Z,101144.00
2019-01-24T14:55:22.459Z,101142.00
2019-01-24T14:57:55.420Z,101141.00
2019-01-24T15:00:41.895Z,101136.00
2019-01-24T15:03:15.012Z,101144.00
2019-01-24T15:05:48.232Z,101139.00
2019-01-24T15:08:21.168Z,101147.00
2019-01-24T15:10:54.080Z,101144.00
2019-01-24T15:13:28.037Z,101142.00
2019-01-24T15:16:00.750Z,101138.00
2019-01-24T15:18:33.953Z,101134.00
2019-01-24T15:21:06.830Z,101141.00
2019-01-24T15:23:39.958Z,101138.00
2019-01-24T15:26:12.819Z,101131.00
2019-01-24T15:28:45.802Z,101134.00
2019-01-24T15:31:18.577Z,101135.00
2019-01-24T15:33:52.558Z,101135.00
2019-01-24T15:36:25.379Z,101147.00
2019-01-24T15:38:58.343Z,101137.00
2019-01-24T15:41:31.147Z,101139.00
2019-01-24T15:44:04.380Z,101136.00
2019-01-24T15:46:37.132Z,101136.00
2019-01-24T15:49:09.908Z,101139.00
2019-01-24T15:51:42.820Z,101141.00
2019-01-24T15:54:15.690Z,101126.00
2019-01-24T15:56:48.660Z,101132.00
2019-01-24T15:59:21.313Z,101130.00
2019-01-24T16:01:54.407Z,101135.00
2019-01-24T16:04:27.405Z,101136.00
2019-01-24T16:07:00.192Z,101135.00
2019-01-24T16:09:33.205Z,101142.00
2019-01-24T16:12:05.967Z,101136.00
2019-01-24T16:14:38.938Z,101134.00
2019-01-24T16:17:11.803Z,101135.00
2019-01-24T16:19:44.716Z,101138.00
2019-01-24T16:22:17.692Z,101138.00
2019-01-24T16:24:50.609Z,101145.00
2019-01-24T16:27:23.655Z,101146.00
2019-01-24T16:29:56.468Z,101141.00
2019-01-24T16:32:30.471Z,101148.00
2019-01-24T16:35:03.269Z,101154.00
2019-01-24T16:37:36.236Z,101147.00
2019-01-24T16:40:28.508Z,101158.00
2019-01-24T16:43:01.973Z,101169.00
2019-01-24T16:45:34.868Z,101166.00
2019-01-24T16:48:08.585Z,101167.00
2019-01-24T16:50:41.440Z,101168.00
2019-01-24T16:53:15.122Z,101179.00
2019-01-24T16:55:48.038Z,101186.00
2019-01-24T16:58:21.010Z,101193.00
2019-01-24T17:00:53.795Z,101195.00
2019-01-24T17:03:27.286Z,101194.00
2019-01-24T17:06:00.182Z,101200.00
2019-01-24T17:08:33.499Z,101205.00
2019-01-24T17:11:06.374Z,101205.00
2019-01-24T17:13:39.337Z,101217.00
2019-01-24T17:16:12.136Z,101217.00
2019-01-24T17:18:45.138Z,101229.00
2019-01-24T17:21:17.891Z,101218.00
2019-01-24T17:23:50.563Z,101219.00
2019-01-24T17:26:23.654Z,101222.00
2019-01-24T17:28:56.450Z,101227.00
2019-01-24T17:31:29.014Z,101224.00
2019-01-24T17:34:02.088Z,101238.00
2019-01-24T17:36:35.004Z,101238.00
2019-01-24T17:39:09.919Z,101237.00
2019-01-24T17:41:43.036Z,101233.00
2019-01-24T17:44:17.227Z,101234.00
2019-01-24T17:46:50.220Z,101226.00
2019-01-24T17:49:23.200Z,101237.00
2019-01-24T17:51:56.110Z,101237.00
2019-01-24T17:54:29.291Z,101240.00
2019-01-24T17:57:02.384Z,101242.00
2019-01-24T17:59:35.232Z,101248.00
2019-01-24T18:02:08.336Z,101258.00
2019-01-24T18:04:41.376Z,101267.00
2019-01-24T18:07:14.178Z,101260.00
2019-01-24T18:09:47.318Z,101271.00
2019-01-24T18:12:20.287Z,101263.00
2019-01-24T18:14:53.200Z,101254.00
2019-01-24T18:17:26.265Z,101254.00
2019-01-24T18:19:59.050Z,101249.00
2019-01-24T18:22:31.829Z,101263.00
2019-01-24T18:25:04.916Z,101286.00
2019-01-24T18:27:37.681Z,101286.00
2019-01-24T18:30:15.441Z,101291.00
2019-01-24T18:32:48.150Z,101291.00
2019-01-24T18:35:21.342Z,101303.00
2019-01-24T18:37:54.253Z,101303.00
2019-01-24T18:40:33.923Z,101313.00
2019-01-24T18:43:07.667Z,101309.00
2019-01-24T18:45:45.710Z,101319.00
2019-01-24T18:48:18.495Z,101317.00
2019-01-24T18:50:51.474Z,101318.00
2019-01-24T18:53:24.258Z,101323.00
2019-01-24T18:55:57.224Z,101323.00
2019-01-24T18:58:29.904Z,101322.00
2019-01-24T19:01:03.108Z,101330.00
2019-01-24T19:03:35.993Z,101328.00
2019-01-24T19:06:08.988Z,101321.00
2019-01-24T19:08:45.947Z,101318.00
2019-01-24T19:11:16.759Z,101309.00
2019-01-24T19:13:49.579Z,101307.00
2019-01-24T19:16:22.336Z,101313.00
2019-01-24T19:18:55.354Z,101307.00
2019-01-24T19:21:28.137Z,101312.00
2019-01-24T19:24:00.988Z,101321.00
2019-01-24T19:26:33.895Z,101318.00
2019-01-24T19:29:06.880Z,101327.00
2019-01-24T19:31:40.381Z,101332.00
2019-01-24T19:34:13.336Z,101331.00
2019-01-24T19:36:46.253Z,101334.00
2019-01-24T19:39:19.058Z,101333.00
2019-01-24T19:41:52.598Z,101334.00
2019-01-24T19:44:25.825Z,101331.00
2019-01-24T19:46:58.730Z,101332.00
2019-01-24T19:49:31.477Z,101326.00
2019-01-24T19:52:04.581Z,101323.00
2019-01-24T19:54:37.376Z,101320.00
2019-01-24T19:57:10.357Z,101326.00
2019-01-24T19:59:43.161Z,101326.00
2019-01-24T20:02:16.589Z,101321.00
2019-01-24T20:04:49.426Z,101317.00
2019-01-24T20:07:22.498Z,101322.00
2019-01-24T20:09:55.277Z,101323.00
2019-01-24T20:12:28.293Z,101334.00
2019-01-24T20:15:01.064Z,101341.00
2019-01-24T20:17:34.271Z,101335.00
2019-01-24T20:20:08.054Z,101343.00
2019-01-24T20:22:41.030Z,101337.00
2019-01-24T20:25:15.977Z,101336.00
2019-01-24T20:27:49.039Z,101337.00
2019-01-24T20:30:26.431Z,101330.00
2019-01-24T20:32:59.756Z,101338.00
2019-01-24T20:35:37.771Z,101335.00
2019-01-24T20:38:11.455Z,101337.00
2019-01-24T20:40:44.444Z,101348.00
2019-01-24T20:43:19.173Z,101358.00
2019-01-24T20:45:52.469Z,101349.00
2019-01-24T20:48:25.373Z,101350.00
2019-01-24T20:50:59.149Z,101349.00
2019-01-24T20:53:32.034Z,101347.00
2019-01-24T20:56:05.014Z,101350.00
2019-01-24T20:58:37.823Z,101340.00
2019-01-24T21:01:10.858Z,101349.00
2019-01-24T21:03:43.762Z,101347.00
2019-01-24T21:06:17.795Z,101338.00
2019-01-24T21:08:50.567Z,101335.00
2019-01-24T21:11:23.552Z,101342.00
2019-01-24T21:13:56.443Z,101341.00
2019-01-24T21:16:29.400Z,101332.00
2019-01-24T21:19:02.320Z,101333.00
2019-01-24T21:21:35.360Z,101341.00
2019-01-24T21:24:08.901Z,101330.00
2019-01-24T21:26:41.813Z,101324.00
2019-01-24T21:29:14.848Z,101336.00
2019-01-24T21:31:47.636Z,101336.00
2019-01-24T21:34:21.438Z,101351.00
2019-01-24T21:36:54.243Z,101356.00
2019-01-24T21:39:28.673Z,101345.00
2019-01-24T21:42:01.742Z,101349.00
2019-01-24T21:44:34.840Z,101350.00
2019-01-24T21:47:07.846Z,101342.00
2019-01-24T21:49:40.806Z,101341.00
2019-01-24T21:52:13.811Z,101358.00
2019-01-24T21:54:46.778Z,101368.00
2019-01-24T21:57:19.567Z,101355.00
2019-01-24T21:59:54.306Z,101357.00
2019-01-24T22:02:27.177Z,101345.00
2019-01-24T22:05:00.048Z,101361.00
2019-01-24T22:07:32.941Z,101347.00
2019-01-24T22:10:06.467Z,101346.00
2019-01-24T22:12:39.525Z,101333.00
2019-01-24T22:15:17.150Z,101338.00
2019-01-24T22:17:50.145Z,101339.00
2019-01-24T22:20:23.069Z,101345.00
2019-01-24T22:22:55.854Z,101345.00
2019-01-24T22:25:30.911Z,101346.00
2019-01-24T22:28:03.926Z,101339.00
2019-01-24T22:30:44.047Z,101349.00
2019-01-24T22:33:16.967Z,101348.00
2019-01-24T22:35:49.929Z,101349.00
2019-01-24T22:38:22.715Z,101341.00
2019-01-24T22:40:56.319Z,101355.00
2019-01-24T22:43:29.112Z,101361.00
2019-01-24T22:46:02.071Z,101365.00
2019-01-24T22:48:34.992Z,101364.00
2019-01-24T22:51:08.121Z,101361.00
2019-01-24T22:53:41.027Z,101372.00
2019-01-24T22:56:14.012Z,101372.00
2019-01-24T22:58:46.803Z,101363.00
2019-01-24T23:01:21.568Z,101348.00
2019-01-24T23:03:54.412Z,101323.00
2019-01-24T23:06:27.429Z,101324.00
2019-01-24T23:09:00.182Z,101327.00
2019-01-24T23:11:33.154Z,101348.00
2019-01-24T23:14:05.940Z,101351.00
2019-01-24T23:16:38.865Z,101352.00
2019-01-24T23:19:11.727Z,101352.00
2019-01-24T23:21:44.498Z,101347.00
2019-01-24T23:24:17.482Z,101352.00
2019-01-24T23:26:50.275Z,101349.00
2019-01-24T23:29:23.114Z,101343.00
2019-01-24T23:31:56.036Z,101345.00
2019-01-24T23:34:29.020Z,101341.00
2019-01-24T23:37:01.809Z,101346.00
2019-01-24T23:39:34.713Z,101347.00
2019-01-24T23:42:07.599Z,101347.00
2019-01-24T23:44:41.690Z,101352.00
2019-01-24T23:47:14.788Z,101334.00
2019-01-24T23:49:47.720Z,101336.00
2019-01-24T23:52:47.857Z,101317.00
2019-01-24T23:55:20.657Z,101341.00
2019-01-24T23:57:53.757Z,101331.00
